createdAt,value
2022-11-02T00:01:48.536Z,73.66
2022-11-02T00:06:52.673Z,73.77
2022-11-02T00:11:55.646Z,73.91
2022-11-02T00:16:58.448Z,73.67
2022-11-02T00:22:03.104Z,73.92
2022-11-02T00:27:05.884Z,74.21
2022-11-02T00:32:08.712Z,75.00
2022-11-02T00:37:12.819Z,74.96
2022-11-02T00:42:16.113Z,74.81
2022-11-02T00:47:19.003Z,75.23
2022-11-02T00:52:23.541Z,75.52
2022-11-02T00:57:28.233Z,75.68
2022-11-02T01:02:31.162Z,75.70
2022-11-02T01:07:35.567Z,76.20
2022-11-02T01:12:39.191Z,76.00
2022-11-02T01:17:41.922Z,75.85
2022-11-02T01:22:46.075Z,75.15
2022-11-02T01:27:49.942Z,75.23
2022-11-02T01:32:52.748Z,76.21
2022-11-02T01:37:57.809Z,76.56
2022-11-02T01:43:00.588Z,77.38
2022-11-02T01:48:03.835Z,76.90
2022-11-02T01:53:08.266Z,76.16
2022-11-02T01:58:14.371Z,75.48
2022-11-02T02:03:21.375Z,75.51
2022-11-02T02:08:28.844Z,76.02
2022-11-02T02:13:31.944Z,75.89
2022-11-02T02:18:43.032Z,74.72
2022-11-02T02:24:15.567Z,74.83
2022-11-02T02:29:23.165Z,73.81
2022-11-02T02:34:30.088Z,73.47
2022-11-02T02:39:42.353Z,74.01
2022-11-02T02:44:53.542Z,75.48
2022-11-02T02:50:02.633Z,77.06
2022-11-02T02:55:09.135Z,76.42
2022-11-02T03:00:17.588Z,75.67
2022-11-02T03:05:25.022Z,75.48
2022-11-02T03:10:33.615Z,75.76
2022-11-02T03:15:42.554Z,77.01
2022-11-02T03:20:57.844Z,77.88
2022-11-02T03:26:06.154Z,77.24
2022-11-02T03:31:20.048Z,76.21
2022-11-02T03:36:30.492Z,76.15
2022-11-02T03:41:35.068Z,76.66
2022-11-02T03:46:42.892Z,77.46
2022-11-02T03:51:47.518Z,78.33
2022-11-02T03:56:54.319Z,77.98
2022-11-02T04:02:00.895Z,78.42
2022-11-02T04:07:05.021Z,80.00
2022-11-02T04:12:27.126Z,80.72
2022-11-02T04:17:48.594Z,81.21
2022-11-02T04:23:11.323Z,81.32
2022-11-02T04:28:14.376Z,81.65
2022-11-02T04:33:34.391Z,81.56
2022-11-02T04:38:43.957Z,82.03
2022-11-02T04:44:16.995Z,83.35
2022-11-02T04:49:27.280Z,83.04
2022-11-02T04:54:30.807Z,83.51
2022-11-02T04:59:38.635Z,82.92
2022-11-02T05:04:44.797Z,83.85
2022-11-02T05:09:48.910Z,83.50
2022-11-02T05:14:51.811Z,84.43
2022-11-02T05:19:56.174Z,83.78
2022-11-02T05:24:59.134Z,84.02
2022-11-02T05:30:02.157Z,83.79
2022-11-02T05:35:07.331Z,83.87
2022-11-02T05:40:11.348Z,85.36
2022-11-02T05:45:14.388Z,85.94
2022-11-02T05:50:18.605Z,86.55
2022-11-02T05:55:21.419Z,86.58
2022-11-02T06:00:25.186Z,86.13
2022-11-02T06:05:32.607Z,85.58
2022-11-02T06:10:36.199Z,85.50
2022-11-02T06:15:39.062Z,84.31
2022-11-02T06:20:43.295Z,83.87
2022-11-02T06:25:52.338Z,85.23
2022-11-02T06:30:55.264Z,86.75
2022-11-02T06:35:59.533Z,86.71
2022-11-02T06:41:06.635Z,86.51
2022-11-02T06:46:10.808Z,86.52
2022-11-02T06:51:15.339Z,86.14
2022-11-02T06:56:18.382Z,86.97
2022-11-02T07:01:21.256Z,85.38
2022-11-02T07:06:25.468Z,84.84
2022-11-02T07:11:28.219Z,85.42
2022-11-02T07:16:31.074Z,85.88
2022-11-02T07:21:35.220Z,85.37
2022-11-02T07:26:37.930Z,83.82
2022-11-02T07:31:40.718Z,82.35
2022-11-02T07:36:44.842Z,82.19
2022-11-02T07:41:51.744Z,82.58
2022-11-02T07:46:54.908Z,82.89
2022-11-02T07:51:58.984Z,79.93
2022-11-02T07:57:02.135Z,77.20
2022-11-02T08:02:04.934Z,75.93
2022-11-02T08:07:09.057Z,76.29
2022-11-02T08:12:11.847Z,75.81
2022-11-02T08:17:14.609Z,75.42
2022-11-02T08:22:18.728Z,73.83
2022-11-02T08:27:21.606Z,73.43
2022-11-02T08:32:24.336Z,72.81
2022-11-02T08:37:28.433Z,73.74
2022-11-02T08:42:31.169Z,74.29
2022-11-02T08:47:33.929Z,72.56
2022-11-02T08:52:40.711Z,71.94
2022-11-02T08:57:47.416Z,73.06
2022-11-02T09:03:00.614Z,71.79
2022-11-02T09:08:06.994Z,71.37
2022-11-02T09:13:13.005Z,72.61
2022-11-02T09:18:15.788Z,73.95
2022-11-02T09:23:21.519Z,72.91
2022-11-02T09:28:24.215Z,73.63
2022-11-02T09:33:26.956Z,73.73
2022-11-02T09:38:31.330Z,71.85
2022-11-02T09:43:44.105Z,71.16
2022-11-02T09:48:51.993Z,71.17
2022-11-02T09:54:08.033Z,68.50
2022-11-02T09:59:15.129Z,70.39
2022-11-02T10:04:34.173Z,70.42
2022-11-02T10:09:45.754Z,71.67
2022-11-02T10:14:57.996Z,82.75
2022-11-02T10:20:06.653Z,92.68
2022-11-02T10:25:16.242Z,92.71
2022-11-02T10:30:21.598Z,89.50
2022-11-02T10:35:45.878Z,88.23
2022-11-02T10:41:16.562Z,87.50
2022-11-02T10:46:30.686Z,88.72
2022-11-02T10:51:33.591Z,84.95
2022-11-02T10:56:37.927Z,83.51
2022-11-02T11:01:47.167Z,80.72
2022-11-02T11:06:50.052Z,78.84
2022-11-02T11:11:59.859Z,78.45
2022-11-02T11:22:29.859Z,74.56
2022-11-02T11:27:45.671Z,71.78
2022-11-02T11:32:49.616Z,73.85
2022-11-02T11:37:56.715Z,77.07
2022-11-02T11:43:02.453Z,76.76
2022-11-02T11:48:18.941Z,76.05
2022-11-02T11:53:24.290Z,78.37
2022-11-02T11:58:29.779Z,80.27
2022-11-02T12:03:32.682Z,88.17
2022-11-02T12:08:52.376Z,86.04
2022-11-02T12:14:10.659Z,88.48
2022-11-02T12:19:33.940Z,89.76
2022-11-02T12:25:09.558Z,88.56
2022-11-02T12:30:18.438Z,89.88
2022-11-02T12:35:33.233Z,88.69
2022-11-02T12:40:49.889Z,87.10
2022-11-02T12:46:01.287Z,85.52
2022-11-02T12:51:08.479Z,83.96
2022-11-02T12:56:18.647Z,81.22
2022-11-02T13:01:28.995Z,80.08
2022-11-02T13:06:40.734Z,79.14
2022-11-02T13:11:47.966Z,77.99
2022-11-02T13:17:01.383Z,80.32
2022-11-02T13:22:06.579Z,90.15
2022-11-02T13:27:36.327Z,95.45
2022-11-02T13:32:44.980Z,96.85
2022-11-02T13:37:52.648Z,96.59
2022-11-02T13:43:11.829Z,97.56
2022-11-02T13:48:51.116Z,97.36
2022-11-02T13:53:56.074Z,96.98
2022-11-02T13:59:02.952Z,96.86
2022-11-02T14:04:10.378Z,93.52
2022-11-02T14:09:28.623Z,95.88
2022-11-02T14:14:31.537Z,97.34
2022-11-02T14:19:51.847Z,100.00
2022-11-02T14:25:18.287Z,99.12
2022-11-02T14:30:45.944Z,93.87
2022-11-02T14:35:59.144Z,92.34
2022-11-02T14:41:17.596Z,93.84
2022-11-02T14:46:37.391Z,95.00
2022-11-02T14:52:02.529Z,92.53
2022-11-02T14:57:16.109Z,90.16
2022-11-02T15:02:24.253Z,86.49
2022-11-02T15:07:35.936Z,85.66
2022-11-02T15:12:41.211Z,85.35
2022-11-02T15:17:59.035Z,86.38
2022-11-02T15:23:29.924Z,84.97
2022-11-02T15:28:36.002Z,87.32
2022-11-02T15:33:42.999Z,84.61
2022-11-02T15:38:51.904Z,86.28
2022-11-02T15:44:11.822Z,86.79
2022-11-02T15:49:30.522Z,88.53
2022-11-02T15:54:46.345Z,89.79
2022-11-02T16:00:15.757Z,91.78
2022-11-02T16:05:21.839Z,93.95
2022-11-02T16:10:29.115Z,95.34
2022-11-02T16:15:32.071Z,90.80
2022-11-02T16:20:39.910Z,92.19
2022-11-02T16:25:47.847Z,92.75
2022-11-02T16:31:03.406Z,91.18
2022-11-02T16:36:10.062Z,92.48
2022-11-02T16:41:16.307Z,92.86
2022-11-02T16:46:28.995Z,92.31
2022-11-02T16:51:31.886Z,92.42
2022-11-02T16:56:36.887Z,93.15
2022-11-02T17:01:45.246Z,94.28
2022-11-02T17:06:50.333Z,95.43
2022-11-02T17:11:57.929Z,96.46
2022-11-02T17:17:03.583Z,94.26
2022-11-02T17:22:13.645Z,93.99
2022-11-02T17:27:25.987Z,93.26
2022-11-02T17:32:29.886Z,94.31
2022-11-02T17:37:33.503Z,93.90
2022-11-02T17:42:55.941Z,92.54
2022-11-02T17:48:00.009Z,91.63
2022-11-02T17:53:05.135Z,90.87
2022-11-02T17:58:09.570Z,91.20
2022-11-02T18:03:19.259Z,88.93
2022-11-02T18:08:22.187Z,89.76
2022-11-02T18:13:26.395Z,90.50
2022-11-02T18:18:32.532Z,90.67
2022-11-02T18:23:36.042Z,90.67
2022-11-02T18:28:40.983Z,90.55
2022-11-02T18:33:52.588Z,89.47
2022-11-02T18:38:55.383Z,88.14
2022-11-02T18:44:05.546Z,87.41
2022-11-02T18:49:10.719Z,88.13
2022-11-02T18:54:14.896Z,86.17
2022-11-02T18:59:18.991Z,85.61
2022-11-02T19:04:21.779Z,86.58
2022-11-02T19:09:26.876Z,86.05
2022-11-02T19:14:33.768Z,85.25
2022-11-02T19:19:42.589Z,86.79
2022-11-02T19:24:47.759Z,86.33
2022-11-02T19:29:52.885Z,86.57
2022-11-02T19:34:59.846Z,86.18
2022-11-02T19:40:24.278Z,86.17
2022-11-02T19:45:38.833Z,86.26
2022-11-02T19:56:57.472Z,86.13
2022-11-02T20:02:36.693Z,85.48
2022-11-02T20:14:39.307Z,85.04
2022-11-02T20:19:47.695Z,84.17
2022-11-02T20:25:21.083Z,82.93
2022-11-02T20:35:47.764Z,81.17
2022-11-02T20:41:53.833Z,80.71
2022-11-02T20:46:59.812Z,81.05
2022-11-02T20:52:07.028Z,79.65
2022-11-02T20:57:18.596Z,80.90
2022-11-02T21:02:27.376Z,81.48
2022-11-02T21:07:41.609Z,81.77
2022-11-02T21:13:02.942Z,82.68
2022-11-02T22:01:31.723Z,85.72
2022-11-02T22:07:06.201Z,84.02
2022-11-02T22:13:32.209Z,83.20
2022-11-02T22:19:16.701Z,83.12
2022-11-02T22:30:24.281Z,83.76
2022-11-02T22:35:43.028Z,84.68
2022-11-02T22:46:52.887Z,85.35
2022-11-02T22:52:02.916Z,86.84
2022-11-02T22:57:42.780Z,86.51
2022-11-02T23:03:57.795Z,87.16
2022-11-02T23:09:27.455Z,87.39
2022-11-02T23:14:50.962Z,88.38
2022-11-02T23:19:56.129Z,88.61
2022-11-02T23:25:17.631Z,89.22
2022-11-02T23:30:49.194Z,89.78
2022-11-02T23:36:23.127Z,89.09
2022-11-02T23:41:36.583Z,88.70
2022-11-02T23:47:10.490Z,90.06
2022-11-02T23:52:33.908Z,90.44
2022-11-02T23:57:38.735Z,89.85
